sensor_id;sensor_type;location;lat;lon;timestamp;P1;durP1;ratioP1;P2;durP2;ratioP2
21281;SDS011;10800;53.096;18.328;2023-07-30T00:02:46;5.60;;;3.97;;
21281;SDS011;10800;53.096;18.328;2023-07-30T00:07:48;6.00;;;3.73;;
21281;SDS011;10800;53.096;18.328;2023-07-30T00:12:55;4.43;;;3.97;;
21281;SDS011;10800;53.096;18.328;2023-07-30T00:18:03;6.73;;;3.97;;
21281;SDS011;10800;53.096;18.328;2023-07-30T00:23:08;5.30;;;3.70;;
21281;SDS011;10800;53.096;18.328;2023-07-30T00:28:14;6.83;;;4.43;;
21281;SDS011;10800;53.096;18.328;2023-07-30T00:33:21;11.90;;;4.43;;
21281;SDS011;10800;53.096;18.328;2023-07-30T00:38:26;10.47;;;4.23;;
21281;SDS011;10800;53.096;18.328;2023-07-30T00:43:35;5.97;;;3.97;;
21281;SDS011;10800;53.096;18.328;2023-07-30T00:48:41;6.57;;;4.73;;
21281;SDS011;10800;53.096;18.328;2023-07-30T00:53:54;6.47;;;4.37;;
21281;SDS011;10800;53.096;18.328;2023-07-30T00:59:00;8.37;;;5.50;;
21281;SDS011;10800;53.096;18.328;2023-07-30T01:04:05;11.10;;;5.10;;
21281;SDS011;10800;53.096;18.328;2023-07-30T01:09:11;8.70;;;4.93;;
21281;SDS011;10800;53.096;18.328;2023-07-30T01:14:17;9.60;;;4.80;;
21281;SDS011;10800;53.096;18.328;2023-07-30T01:19:24;5.63;;;3.63;;
21281;SDS011;10800;53.096;18.328;2023-07-30T01:24:30;6.60;;;4.60;;
21281;SDS011;10800;53.096;18.328;2023-07-30T01:34:43;6.40;;;3.87;;
21281;SDS011;10800;53.096;18.328;2023-07-30T01:39:51;9.87;;;5.13;;
21281;SDS011;10800;53.096;18.328;2023-07-30T01:44:57;7.30;;;4.87;;
21281;SDS011;10800;53.096;18.328;2023-07-30T01:50:03;10.33;;;4.53;;
21281;SDS011;10800;53.096;18.328;2023-07-30T01:55:09;8.87;;;5.27;;
21281;SDS011;10800;53.096;18.328;2023-07-30T02:00:14;7.80;;;4.93;;
21281;SDS011;10800;53.096;18.328;2023-07-30T02:05:20;10.23;;;5.47;;
21281;SDS011;10800;53.096;18.328;2023-07-30T02:10:25;11.30;;;4.67;;
21281;SDS011;10800;53.096;18.328;2023-07-30T02:15:58;9.80;;;5.50;;
21281;SDS011;10800;53.096;18.328;2023-07-30T02:21:16;16.20;;;5.80;;
21281;SDS011;10800;53.096;18.328;2023-07-30T02:26:48;10.43;;;6.43;;
21281;SDS011;10800;53.096;18.328;2023-07-30T02:32:13;9.10;;;6.00;;
21281;SDS011;10800;53.096;18.328;2023-07-30T02:37:50;10.07;;;5.87;;
21281;SDS011;10800;53.096;18.328;2023-07-30T02:43:29;7.63;;;5.70;;
21281;SDS011;10800;53.096;18.328;2023-07-30T02:48:46;10.77;;;4.87;;
21281;SDS011;10800;53.096;18.328;2023-07-30T02:54:07;12.03;;;5.87;;
21281;SDS011;10800;53.096;18.328;2023-07-30T02:59:50;6.77;;;4.83;;
21281;SDS011;10800;53.096;18.328;2023-07-30T03:05:06;8.33;;;5.33;;
21281;SDS011;10800;53.096;18.328;2023-07-30T03:10:48;8.40;;;5.50;;
21281;SDS011;10800;53.096;18.328;2023-07-30T03:16:11;12.17;;;5.33;;
21281;SDS011;10800;53.096;18.328;2023-07-30T03:21:43;7.70;;;4.97;;
21281;SDS011;10800;53.096;18.328;2023-07-30T03:27:01;7.20;;;5.50;;
21281;SDS011;10800;53.096;18.328;2023-07-30T03:32:40;7.43;;;4.53;;
21281;SDS011;10800;53.096;18.328;2023-07-30T03:37:57;11.30;;;5.93;;
21281;SDS011;10800;53.096;18.328;2023-07-30T03:43:23;8.63;;;5.27;;
21281;SDS011;10800;53.096;18.328;2023-07-30T03:48:56;8.03;;;4.67;;
21281;SDS011;10800;53.096;18.328;2023-07-30T03:54:15;9.43;;;5.87;;
21281;SDS011;10800;53.096;18.328;2023-07-30T03:59:46;7.77;;;5.50;;
21281;SDS011;10800;53.096;18.328;2023-07-30T04:05:09;9.37;;;5.40;;
21281;SDS011;10800;53.096;18.328;2023-07-30T04:10:37;8.97;;;5.80;;
21281;SDS011;10800;53.096;18.328;2023-07-30T04:15:46;16.57;;;7.13;;
21281;SDS011;10800;53.096;18.328;2023-07-30T04:21:13;11.37;;;5.97;;
21281;SDS011;10800;53.096;18.328;2023-07-30T04:26:24;9.83;;;6.20;;
21281;SDS011;10800;53.096;18.328;2023-07-30T04:31:36;10.57;;;6.10;;
21281;SDS011;10800;53.096;18.328;2023-07-30T04:36:43;11.93;;;6.63;;
21281;SDS011;10800;53.096;18.328;2023-07-30T04:41:51;14.63;;;6.63;;
21281;SDS011;10800;53.096;18.328;2023-07-30T04:47:00;9.70;;;6.17;;
21281;SDS011;10800;53.096;18.328;2023-07-30T04:52:09;9.73;;;6.20;;
21281;SDS011;10800;53.096;18.328;2023-07-30T04:57:20;11.80;;;6.70;;
21281;SDS011;10800;53.096;18.328;2023-07-30T05:02:33;14.77;;;7.40;;
21281;SDS011;10800;53.096;18.328;2023-07-30T05:07:40;13.07;;;7.10;;
21281;SDS011;10800;53.096;18.328;2023-07-30T05:12:49;10.73;;;6.37;;
21281;SDS011;10800;53.096;18.328;2023-07-30T05:18:00;12.93;;;7.43;;
21281;SDS011;10800;53.096;18.328;2023-07-30T05:23:10;9.17;;;6.57;;
21281;SDS011;10800;53.096;18.328;2023-07-30T05:28:17;12.03;;;6.47;;
21281;SDS011;10800;53.096;18.328;2023-07-30T05:33:28;11.90;;;7.37;;
21281;SDS011;10800;53.096;18.328;2023-07-30T05:38:43;15.70;;;7.70;;
21281;SDS011;10800;53.096;18.328;2023-07-30T05:44:08;11.27;;;6.73;;
21281;SDS011;10800;53.096;18.328;2023-07-30T05:49:18;14.17;;;8.23;;
21281;SDS011;10800;53.096;18.328;2023-07-30T05:54:28;14.53;;;7.80;;
21281;SDS011;10800;53.096;18.328;2023-07-30T05:59:40;20.17;;;8.73;;
21281;SDS011;10800;53.096;18.328;2023-07-30T06:04:59;12.30;;;7.17;;
21281;SDS011;10800;53.096;18.328;2023-07-30T06:10:51;11.80;;;7.53;;
21281;SDS011;10800;53.096;18.328;2023-07-30T06:16:40;16.57;;;7.60;;
21281;SDS011;10800;53.096;18.328;2023-07-30T06:22:15;10.70;;;7.17;;
21281;SDS011;10800;53.096;18.328;2023-07-30T06:28:05;16.23;;;8.47;;
21281;SDS011;10800;53.096;18.328;2023-07-30T06:33:37;13.80;;;7.60;;
21281;SDS011;10800;53.096;18.328;2023-07-30T06:39:31;13.83;;;7.97;;
21281;SDS011;10800;53.096;18.328;2023-07-30T06:45:22;13.30;;;6.80;;
21281;SDS011;10800;53.096;18.328;2023-07-30T06:51:13;9.40;;;6.42;;
21281;SDS011;10800;53.096;18.328;2023-07-30T06:57:11;9.80;;;6.80;;
21281;SDS011;10800;53.096;18.328;2023-07-30T07:08:16;10.20;;;6.90;;
21281;SDS011;10800;53.096;18.328;2023-07-30T07:14:08;9.97;;;6.47;;
21281;SDS011;10800;53.096;18.328;2023-07-30T07:26:07;8.47;;;6.07;;
21281;SDS011;10800;53.096;18.328;2023-07-30T07:44:15;8.73;;;6.63;;
21281;SDS011;10800;53.096;18.328;2023-07-30T07:49:56;8.18;;;6.10;;
21281;SDS011;10800;53.096;18.328;2023-07-30T07:55:22;8.33;;;6.73;;
21281;SDS011;10800;53.096;18.328;2023-07-30T08:01:03;7.75;;;5.87;;
21281;SDS011;10800;53.096;18.328;2023-07-30T08:06:34;8.13;;;6.12;;
21281;SDS011;10800;53.096;18.328;2023-07-30T08:11:47;9.50;;;5.67;;
21281;SDS011;10800;53.096;18.328;2023-07-30T08:17:33;9.40;;;6.53;;
21281;SDS011;10800;53.096;18.328;2023-07-30T08:22:48;11.50;;;7.17;;
21281;SDS011;10800;53.096;18.328;2023-07-30T08:28:02;7.42;;;6.03;;
21281;SDS011;10800;53.096;18.328;2023-07-30T08:33:36;10.30;;;5.40;;
21281;SDS011;10800;53.096;18.328;2023-07-30T08:39:24;8.58;;;5.30;;
21281;SDS011;10800;53.096;18.328;2023-07-30T08:44:46;8.63;;;4.55;;
21281;SDS011;10800;53.096;18.328;2023-07-30T08:50:17;5.45;;;4.67;;
21281;SDS011;10800;53.096;18.328;2023-07-30T08:55:25;13.38;;;5.05;;
21281;SDS011;10800;53.096;18.328;2023-07-30T09:00:34;6.47;;;4.87;;
21281;SDS011;10800;53.096;18.328;2023-07-30T09:06:07;6.72;;;5.08;;
21281;SDS011;10800;53.096;18.328;2023-07-30T09:11:24;8.08;;;4.97;;
21281;SDS011;10800;53.096;18.328;2023-07-30T09:17:06;6.67;;;4.70;;
21281;SDS011;10800;53.096;18.328;2023-07-30T09:22:12;6.78;;;4.58;;
21281;SDS011;10800;53.096;18.328;2023-07-30T09:27:19;6.28;;;3.62;;
21281;SDS011;10800;53.096;18.328;2023-07-30T09:32:33;7.65;;;4.70;;
21281;SDS011;10800;53.096;18.328;2023-07-30T09:37:39;4.72;;;4.17;;
21281;SDS011;10800;53.096;18.328;2023-07-30T09:42:46;5.28;;;3.77;;
21281;SDS011;10800;53.096;18.328;2023-07-30T09:47:54;4.65;;;3.35;;
21281;SDS011;10800;53.096;18.328;2023-07-30T09:58:36;7.03;;;3.55;;
21281;SDS011;10800;53.096;18.328;2023-07-30T10:03:41;7.97;;;3.40;;
21281;SDS011;10800;53.096;18.328;2023-07-30T10:08:47;9.15;;;3.90;;
21281;SDS011;10800;53.096;18.328;2023-07-30T10:13:53;5.78;;;3.85;;
21281;SDS011;10800;53.096;18.328;2023-07-30T10:19:00;3.70;;;3.20;;
21281;SDS011;10800;53.096;18.328;2023-07-30T10:24:07;3.22;;;2.90;;
21281;SDS011;10800;53.096;18.328;2023-07-30T10:29:17;4.42;;;3.20;;
21281;SDS011;10800;53.096;18.328;2023-07-30T10:34:26;3.12;;;2.83;;
21281;SDS011;10800;53.096;18.328;2023-07-30T10:44:45;3.80;;;2.70;;
21281;SDS011;10800;53.096;18.328;2023-07-30T10:49:51;2.70;;;2.50;;
21281;SDS011;10800;53.096;18.328;2023-07-30T10:55:00;5.20;;;3.47;;
21281;SDS011;10800;53.096;18.328;2023-07-30T11:00:06;6.03;;;3.15;;
21281;SDS011;10800;53.096;18.328;2023-07-30T11:05:17;3.58;;;2.30;;
21281;SDS011;10800;53.096;18.328;2023-07-30T11:10:24;4.12;;;2.40;;
21281;SDS011;10800;53.096;18.328;2023-07-30T11:15:29;7.80;;;2.70;;
21281;SDS011;10800;53.096;18.328;2023-07-30T11:20:35;3.05;;;2.25;;
21281;SDS011;10800;53.096;18.328;2023-07-30T11:25:41;3.17;;;2.70;;
21281;SDS011;10800;53.096;18.328;2023-07-30T11:30:51;2.77;;;2.17;;
21281;SDS011;10800;53.096;18.328;2023-07-30T11:35:57;6.70;;;2.17;;
21281;SDS011;10800;53.096;18.328;2023-07-30T11:41:08;3.30;;;2.60;;
21281;SDS011;10800;53.096;18.328;2023-07-30T11:46:16;2.40;;;2.20;;
21281;SDS011;10800;53.096;18.328;2023-07-30T11:51:29;4.62;;;2.27;;
21281;SDS011;10800;53.096;18.328;2023-07-30T11:56:34;2.45;;;2.10;;
21281;SDS011;10800;53.096;18.328;2023-07-30T12:01:39;3.90;;;2.33;;
21281;SDS011;10800;53.096;18.328;2023-07-30T12:06:47;4.15;;;2.33;;
21281;SDS011;10800;53.096;18.328;2023-07-30T12:11:56;2.08;;;1.80;;
21281;SDS011;10800;53.096;18.328;2023-07-30T12:17:07;2.05;;;1.80;;
21281;SDS011;10800;53.096;18.328;2023-07-30T12:22:13;1.70;;;1.60;;
21281;SDS011;10800;53.096;18.328;2023-07-30T12:27:19;2.50;;;1.90;;
21281;SDS011;10800;53.096;18.328;2023-07-30T12:32:24;7.53;;;1.85;;
21281;SDS011;10800;53.096;18.328;2023-07-30T12:37:34;1.90;;;1.77;;
21281;SDS011;10800;53.096;18.328;2023-07-30T12:42:41;2.47;;;1.72;;
21281;SDS011;10800;53.096;18.328;2023-07-30T12:47:46;1.57;;;1.47;;
21281;SDS011;10800;53.096;18.328;2023-07-30T12:52:52;1.67;;;1.45;;
21281;SDS011;10800;53.096;18.328;2023-07-30T12:57:57;1.40;;;1.30;;
21281;SDS011;10800;53.096;18.328;2023-07-30T13:03:02;1.85;;;1.42;;
21281;SDS011;10800;53.096;18.328;2023-07-30T13:08:08;1.42;;;1.32;;
21281;SDS011;10800;53.096;18.328;2023-07-30T13:13:15;1.52;;;1.27;;
21281;SDS011;10800;53.096;18.328;2023-07-30T13:18:20;1.62;;;1.40;;
21281;SDS011;10800;53.096;18.328;2023-07-30T13:23:26;1.50;;;1.40;;
21281;SDS011;10800;53.096;18.328;2023-07-30T13:28:32;1.37;;;1.25;;
21281;SDS011;10800;53.096;18.328;2023-07-30T13:33:42;1.45;;;1.35;;
21281;SDS011;10800;53.096;18.328;2023-07-30T13:38:49;1.70;;;1.60;;
21281;SDS011;10800;53.096;18.328;2023-07-30T13:43:54;2.30;;;1.57;;
21281;SDS011;10800;53.096;18.328;2023-07-30T13:49:00;1.60;;;1.50;;
21281;SDS011;10800;53.096;18.328;2023-07-30T13:54:06;1.87;;;1.40;;
21281;SDS011;10800;53.096;18.328;2023-07-30T13:59:12;2.52;;;1.37;;
21281;SDS011;10800;53.096;18.328;2023-07-30T14:04:18;1.55;;;1.45;;
21281;SDS011;10800;53.096;18.328;2023-07-30T14:09:23;1.30;;;1.20;;
21281;SDS011;10800;53.096;18.328;2023-07-30T14:14:30;4.33;;;1.52;;
21281;SDS011;10800;53.096;18.328;2023-07-30T14:19:36;1.55;;;1.45;;
21281;SDS011;10800;53.096;18.328;2023-07-30T14:24:41;4.47;;;1.37;;
21281;SDS011;10800;53.096;18.328;2023-07-30T14:29:48;1.22;;;1.07;;
21281;SDS011;10800;53.096;18.328;2023-07-30T14:34:54;1.67;;;1.40;;
21281;SDS011;10800;53.096;18.328;2023-07-30T14:39:59;1.35;;;1.07;;
21281;SDS011;10800;53.096;18.328;2023-07-30T14:45:04;1.85;;;1.20;;
21281;SDS011;10800;53.096;18.328;2023-07-30T14:50:14;2.10;;;1.40;;
21281;SDS011;10800;53.096;18.328;2023-07-30T14:55:19;0.88;;;0.88;;
21281;SDS011;10800;53.096;18.328;2023-07-30T15:00:25;0.93;;;0.93;;
21281;SDS011;10800;53.096;18.328;2023-07-30T15:05:31;1.47;;;1.30;;
21281;SDS011;10800;53.096;18.328;2023-07-30T15:10:38;1.30;;;1.20;;
21281;SDS011;10800;53.096;18.328;2023-07-30T15:15:44;1.82;;;1.12;;
21281;SDS011;10800;53.096;18.328;2023-07-30T15:20:49;8.65;;;1.42;;
21281;SDS011;10800;53.096;18.328;2023-07-30T15:25:54;1.55;;;0.90;;
21281;SDS011;10800;53.096;18.328;2023-07-30T15:31:01;2.25;;;1.25;;
21281;SDS011;10800;53.096;18.328;2023-07-30T15:36:07;0.78;;;0.70;;
21281;SDS011;10800;53.096;18.328;2023-07-30T15:41:12;3.25;;;1.20;;
21281;SDS011;10800;53.096;18.328;2023-07-30T15:46:18;1.32;;;1.22;;
21281;SDS011;10800;53.096;18.328;2023-07-30T15:51:24;1.75;;;1.27;;
21281;SDS011;10800;53.096;18.328;2023-07-30T15:56:31;2.15;;;1.20;;
21281;SDS011;10800;53.096;18.328;2023-07-30T16:01:39;1.40;;;0.98;;
21281;SDS011;10800;53.096;18.328;2023-07-30T16:06:45;1.75;;;1.20;;
21281;SDS011;10800;53.096;18.328;2023-07-30T16:11:50;1.60;;;1.30;;
21281;SDS011;10800;53.096;18.328;2023-07-30T16:16:56;5.67;;;1.80;;
21281;SDS011;10800;53.096;18.328;2023-07-30T16:22:02;1.85;;;1.40;;
21281;SDS011;10800;53.096;18.328;2023-07-30T16:27:07;4.70;;;1.80;;
21281;SDS011;10800;53.096;18.328;2023-07-30T16:32:13;1.70;;;1.30;;
21281;SDS011;10800;53.096;18.328;2023-07-30T16:37:19;1.22;;;1.12;;
21281;SDS011;10800;53.096;18.328;2023-07-30T16:42:31;1.57;;;1.32;;
21281;SDS011;10800;53.096;18.328;2023-07-30T16:47:36;1.47;;;1.27;;
21281;SDS011;10800;53.096;18.328;2023-07-30T16:52:42;1.55;;;1.30;;
21281;SDS011;10800;53.096;18.328;2023-07-30T16:57:47;1.82;;;1.52;;
21281;SDS011;10800;53.096;18.328;2023-07-30T17:02:52;1.95;;;1.40;;
21281;SDS011;10800;53.096;18.328;2023-07-30T17:07:58;1.47;;;1.35;;
21281;SDS011;10800;53.096;18.328;2023-07-30T17:13:03;2.12;;;1.42;;
21281;SDS011;10800;53.096;18.328;2023-07-30T17:18:08;5.47;;;1.45;;
21281;SDS011;10800;53.096;18.328;2023-07-30T17:23:14;1.95;;;1.42;;
21281;SDS011;10800;53.096;18.328;2023-07-30T17:28:19;2.83;;;1.40;;
21281;SDS011;10800;53.096;18.328;2023-07-30T17:33:24;1.47;;;1.37;;
21281;SDS011;10800;53.096;18.328;2023-07-30T17:38:30;1.60;;;1.45;;
21281;SDS011;10800;53.096;18.328;2023-07-30T17:43:36;1.17;;;1.00;;
21281;SDS011;10800;53.096;18.328;2023-07-30T17:48:43;0.95;;;0.95;;
21281;SDS011;10800;53.096;18.328;2023-07-30T17:53:49;1.55;;;1.27;;
21281;SDS011;10800;53.096;18.328;2023-07-30T17:58:56;1.62;;;1.20;;
21281;SDS011;10800;53.096;18.328;2023-07-30T18:04:01;1.77;;;1.32;;
21281;SDS011;10800;53.096;18.328;2023-07-30T18:09:09;2.98;;;1.80;;
21281;SDS011;10800;53.096;18.328;2023-07-30T18:14:15;1.67;;;1.55;;
21281;SDS011;10800;53.096;18.328;2023-07-30T18:19:21;2.87;;;1.72;;
21281;SDS011;10800;53.096;18.328;2023-07-30T18:24:26;1.30;;;1.20;;
21281;SDS011;10800;53.096;18.328;2023-07-30T18:29:31;1.70;;;1.02;;
21281;SDS011;10800;53.096;18.328;2023-07-30T18:34:37;1.57;;;1.20;;
21281;SDS011;10800;53.096;18.328;2023-07-30T18:39:42;1.82;;;1.25;;
21281;SDS011;10800;53.096;18.328;2023-07-30T18:44:47;1.95;;;1.32;;
21281;SDS011;10800;53.096;18.328;2023-07-30T18:49:58;1.37;;;1.10;;
21281;SDS011;10800;53.096;18.328;2023-07-30T18:55:04;3.98;;;1.25;;
21281;SDS011;10800;53.096;18.328;2023-07-30T19:00:10;1.45;;;1.20;;
21281;SDS011;10800;53.096;18.328;2023-07-30T19:05:16;1.00;;;0.90;;
21281;SDS011;10800;53.096;18.328;2023-07-30T19:10:21;1.85;;;1.20;;
21281;SDS011;10800;53.096;18.328;2023-07-30T19:15:26;11.90;;;5.07;;
21281;SDS011;10800;53.096;18.328;2023-07-30T19:20:33;5.00;;;2.30;;
21281;SDS011;10800;53.096;18.328;2023-07-30T19:25:44;4.28;;;2.20;;
21281;SDS011;10800;53.096;18.328;2023-07-30T19:30:54;2.77;;;1.60;;
21281;SDS011;10800;53.096;18.328;2023-07-30T19:36:00;3.47;;;2.42;;
21281;SDS011;10800;53.096;18.328;2023-07-30T19:41:06;1.80;;;1.50;;
21281;SDS011;10800;53.096;18.328;2023-07-30T19:46:14;1.63;;;1.40;;
21281;SDS011;10800;53.096;18.328;2023-07-30T19:51:20;1.85;;;1.67;;
21281;SDS011;10800;53.096;18.328;2023-07-30T19:56:26;2.75;;;1.60;;
21281;SDS011;10800;53.096;18.328;2023-07-30T20:01:32;2.77;;;1.70;;
21281;SDS011;10800;53.096;18.328;2023-07-30T20:06:41;1.90;;;1.67;;
21281;SDS011;10800;53.096;18.328;2023-07-30T20:11:49;4.27;;;2.40;;
21281;SDS011;10800;53.096;18.328;2023-07-30T20:16:56;11.43;;;4.70;;
21281;SDS011;10800;53.096;18.328;2023-07-30T20:22:02;17.30;;;6.70;;
21281;SDS011;10800;53.096;18.328;2023-07-30T20:27:07;10.53;;;4.55;;
21281;SDS011;10800;53.096;18.328;2023-07-30T20:32:13;10.67;;;4.67;;
21281;SDS011;10800;53.096;18.328;2023-07-30T20:37:18;8.83;;;4.60;;
21281;SDS011;10800;53.096;18.328;2023-07-30T20:42:23;7.93;;;3.87;;
21281;SDS011;10800;53.096;18.328;2023-07-30T20:47:29;8.30;;;3.37;;
21281;SDS011;10800;53.096;18.328;2023-07-30T20:52:34;7.83;;;3.87;;
21281;SDS011;10800;53.096;18.328;2023-07-30T20:57:40;6.87;;;4.13;;
21281;SDS011;10800;53.096;18.328;2023-07-30T21:02:46;5.10;;;3.57;;
21281;SDS011;10800;53.096;18.328;2023-07-30T21:07:52;3.90;;;2.93;;
21281;SDS011;10800;53.096;18.328;2023-07-30T21:12:57;3.47;;;2.00;;
21281;SDS011;10800;53.096;18.328;2023-07-30T21:23:21;3.90;;;2.23;;
21281;SDS011;10800;53.096;18.328;2023-07-30T21:28:26;4.80;;;2.23;;
21281;SDS011;10800;53.096;18.328;2023-07-30T21:33:32;3.23;;;2.30;;
21281;SDS011;10800;53.096;18.328;2023-07-30T21:38:39;5.27;;;2.50;;
21281;SDS011;10800;53.096;18.328;2023-07-30T21:43:44;3.27;;;2.50;;
21281;SDS011;10800;53.096;18.328;2023-07-30T21:48:50;3.07;;;2.33;;
21281;SDS011;10800;53.096;18.328;2023-07-30T21:53:55;4.90;;;2.67;;
21281;SDS011;10800;53.096;18.328;2023-07-30T21:59:01;3.53;;;2.47;;
21281;SDS011;10800;53.096;18.328;2023-07-30T22:04:06;9.50;;;2.53;;
21281;SDS011;10800;53.096;18.328;2023-07-30T22:09:12;3.13;;;2.83;;
21281;SDS011;10800;53.096;18.328;2023-07-30T22:14:17;3.37;;;2.20;;
21281;SDS011;10800;53.096;18.328;2023-07-30T22:19:23;4.77;;;2.60;;
21281;SDS011;10800;53.096;18.328;2023-07-30T22:24:28;5.37;;;2.43;;
21281;SDS011;10800;53.096;18.328;2023-07-30T22:29:33;3.20;;;2.00;;
21281;SDS011;10800;53.096;18.328;2023-07-30T22:34:39;3.93;;;2.63;;
21281;SDS011;10800;53.096;18.328;2023-07-30T22:39:44;3.80;;;2.63;;
21281;SDS011;10800;53.096;18.328;2023-07-30T22:44:50;3.53;;;2.63;;
21281;SDS011;10800;53.096;18.328;2023-07-30T22:49:56;4.13;;;2.23;;
21281;SDS011;10800;53.096;18.328;2023-07-30T22:55:02;3.17;;;2.33;;
21281;SDS011;10800;53.096;18.328;2023-07-30T23:00:08;3.73;;;2.00;;
21281;SDS011;10800;53.096;18.328;2023-07-30T23:05:13;2.37;;;1.43;;
21281;SDS011;10800;53.096;18.328;2023-07-30T23:10:19;5.30;;;1.87;;
21281;SDS011;10800;53.096;18.328;2023-07-30T23:15:27;2.23;;;1.63;;
21281;SDS011;10800;53.096;18.328;2023-07-30T23:20:33;7.90;;;1.40;;
21281;SDS011;10800;53.096;18.328;2023-07-30T23:25:38;1.90;;;1.30;;
21281;SDS011;10800;53.096;18.328;2023-07-30T23:30:44;2.03;;;1.67;;
21281;SDS011;10800;53.096;18.328;2023-07-30T23:35:49;1.77;;;1.60;;
21281;SDS011;10800;53.096;18.328;2023-07-30T23:41:04;1.73;;;1.13;;
21281;SDS011;10800;53.096;18.328;2023-07-30T23:46:10;5.80;;;1.77;;
21281;SDS011;10800;53.096;18.328;2023-07-30T23:51:15;3.77;;;1.93;;
21281;SDS011;10800;53.096;18.328;2023-07-30T23:56:21;3.30;;;1.67;;
